createdAt,value
2023-01-06T00:02:19.490Z,91242.75
2023-01-06T00:04:45.935Z,91307.88
2023-01-06T00:07:12.587Z,91363.84
2023-01-06T00:09:38.955Z,91417.75
2023-01-06T00:12:05.868Z,91457.88
2023-01-06T00:14:32.253Z,91480.28
2023-01-06T00:16:58.856Z,91483.91
2023-01-06T00:19:25.284Z,91490.69
2023-01-06T00:21:51.656Z,91485.03
2023-01-06T00:24:18.009Z,91470.41
2023-01-06T00:26:44.398Z,91458.97
2023-01-06T00:29:10.976Z,91444.91
2023-01-06T00:31:38.029Z,91433.94
2023-01-06T00:34:04.362Z,91417.28
2023-01-06T00:36:30.809Z,91386.03
2023-01-06T00:38:57.135Z,91363.59
2023-01-06T00:41:42.555Z,91345.34
2023-01-06T00:44:08.933Z,91308.34
2023-01-06T00:46:35.468Z,91292.72
2023-01-06T00:49:07.129Z,91267.16
2023-01-06T00:51:37.986Z,91235.91
2023-01-06T00:54:04.515Z,91209.88
2023-01-06T00:56:30.977Z,91182.25
2023-01-06T00:58:57.344Z,91142.69
2023-01-06T01:01:23.797Z,91108.81
2023-01-06T01:03:50.270Z,91073.41
2023-01-06T01:06:16.639Z,91054.63
2023-01-06T01:08:43.926Z,91018.72
2023-01-06T01:11:31.610Z,91002.28
2023-01-06T01:13:58.168Z,90966.63
2023-01-06T01:16:24.541Z,90951.00
2023-01-06T01:18:50.958Z,90930.16
2023-01-06T01:21:17.307Z,90900.44
2023-01-06T01:23:43.858Z,90873.63
2023-01-06T01:26:10.191Z,90857.72
2023-01-06T01:28:36.747Z,90827.25
2023-01-06T01:31:03.414Z,90800.16
2023-01-06T01:33:30.372Z,90761.63
2023-01-06T01:35:56.925Z,90741.56
2023-01-06T01:38:25.690Z,90708.19
2023-01-06T01:40:52.435Z,90684.75
2023-01-06T01:43:18.797Z,90660.28
2023-01-06T01:45:47.922Z,90641.00
2023-01-06T01:48:29.645Z,90623.31
2023-01-06T01:50:57.056Z,90607.13
2023-01-06T01:53:26.016Z,90586.31
2023-01-06T01:55:53.266Z,90569.13
2023-01-06T01:58:28.351Z,90543.03
2023-01-06T02:00:54.894Z,90540.97
2023-01-06T02:03:21.759Z,90521.66
2023-01-06T02:05:50.830Z,90512.78
2023-01-06T02:08:35.592Z,90494.28
2023-01-06T02:11:02.127Z,90474.25
2023-01-06T02:13:28.476Z,90469.81
2023-01-06T02:16:05.485Z,90457.81
2023-01-06T02:18:44.771Z,90445.59
2023-01-06T02:21:52.464Z,90419.03
2023-01-06T02:24:43.444Z,90411.72
2023-01-06T02:27:43.388Z,90406.50
2023-01-06T02:30:30.031Z,90406.50
2023-01-06T02:32:56.612Z,90408.31
2023-01-06T02:35:37.240Z,90416.13
2023-01-06T02:38:42.224Z,90389.34
2023-01-06T02:41:23.768Z,90393.97
2023-01-06T02:43:57.383Z,90399.19
2023-01-06T02:46:28.978Z,90390.81
2023-01-06T02:49:28.282Z,90388.22
2023-01-06T02:51:57.723Z,90385.59
2023-01-06T02:54:41.400Z,90381.94
2023-01-06T02:57:10.875Z,90377.00
2023-01-06T02:59:40.457Z,90385.88
2023-01-06T03:02:06.892Z,90376.25
2023-01-06T03:04:36.027Z,90371.78
2023-01-06T03:07:03.308Z,90380.66
2023-01-06T03:09:33.520Z,90392.63
2023-01-06T03:12:00.623Z,90393.97
2023-01-06T03:14:33.000Z,90385.88
2023-01-06T03:17:00.640Z,90392.63
2023-01-06T03:19:27.079Z,90380.88
2023-01-06T03:21:53.453Z,90382.44
2023-01-06T03:24:19.862Z,90362.09
2023-01-06T03:26:46.734Z,90356.59
2023-01-06T03:29:15.451Z,90336.94
2023-01-06T03:32:00.288Z,90323.84
2023-01-06T03:34:51.381Z,90323.28
2023-01-06T03:37:23.757Z,90334.19
2023-01-06T03:40:15.157Z,90338.38
2023-01-06T03:43:06.184Z,90345.59
2023-01-06T03:45:41.218Z,90365.41
2023-01-06T03:48:36.495Z,90389.34
2023-01-06T03:51:24.749Z,90418.50
2023-01-06T03:54:00.155Z,90462.34
2023-01-06T03:57:02.237Z,90491.50
2023-01-06T03:59:29.180Z,90527.97
2023-01-06T04:01:55.593Z,90559.25
2023-01-06T04:04:22.000Z,90584.31
2023-01-06T04:06:48.412Z,90621.00
2023-01-06T04:09:14.783Z,90646.56
2023-01-06T04:11:59.705Z,90695.81
2023-01-06T04:14:26.275Z,90727.91
2023-01-06T04:16:52.639Z,90753.66
2023-01-06T04:19:19.188Z,90800.56
2023-01-06T04:21:45.541Z,90848.53
2023-01-06T04:24:12.270Z,90900.13
2023-01-06T04:26:38.629Z,90960.63
2023-01-06T04:29:05.358Z,91043.53
2023-01-06T04:31:32.958Z,91102.75
2023-01-06T04:34:01.043Z,91160.88
2023-01-06T04:36:27.451Z,91213.03
2023-01-06T04:38:53.819Z,91246.41
2023-01-06T04:41:20.320Z,91299.09
2023-01-06T04:43:46.847Z,91358.06
2023-01-06T04:46:13.224Z,91410.50
2023-01-06T04:48:39.907Z,91471.00
2023-01-06T04:51:07.488Z,91520.31
2023-01-06T04:53:35.091Z,91559.44
2023-01-06T04:56:05.595Z,91611.66
2023-01-06T04:58:32.109Z,91671.16
2023-01-06T05:01:02.850Z,91752.56
2023-01-06T05:03:29.339Z,91819.41
2023-01-06T05:05:55.986Z,91889.06
2023-01-06T05:08:22.363Z,91939.44
2023-01-06T05:10:48.942Z,91974.13
2023-01-06T05:13:15.293Z,92010.66
2023-01-06T05:15:41.856Z,92036.28
2023-01-06T05:18:08.197Z,92066.31
2023-01-06T05:20:34.568Z,92124.03
2023-01-06T05:23:01.001Z,92182.25
2023-01-06T05:25:27.516Z,92238.09
2023-01-06T05:27:53.873Z,92284.59
2023-01-06T05:30:20.260Z,92361.41
2023-01-06T05:32:46.609Z,92443.91
2023-01-06T05:35:12.953Z,92541.84
2023-01-06T05:37:39.537Z,92648.13
2023-01-06T05:40:06.572Z,92745.03
2023-01-06T05:42:32.920Z,92847.22
2023-01-06T05:44:59.261Z,92979.41
2023-01-06T05:47:25.794Z,93084.84
2023-01-06T05:49:52.138Z,93192.50
2023-01-06T05:52:18.683Z,93286.53
2023-01-06T05:54:45.040Z,93358.47
2023-01-06T05:57:11.739Z,93400.47
2023-01-06T05:59:38.099Z,93455.69
2023-01-06T06:02:04.795Z,93546.09
2023-01-06T06:04:31.183Z,93635.88
2023-01-06T06:06:57.751Z,93715.25
2023-01-06T06:09:24.096Z,93783.16
2023-01-06T06:11:51.865Z,93839.00
2023-01-06T06:14:18.288Z,93859.31
2023-01-06T06:16:44.706Z,93897.28
2023-01-06T06:19:12.362Z,93965.97
2023-01-06T06:21:38.978Z,94028.28
2023-01-06T06:24:05.910Z,94101.44
2023-01-06T06:26:32.256Z,94174.56
2023-01-06T06:28:58.794Z,94225.19
2023-01-06T06:31:28.974Z,94263.75
2023-01-06T06:33:57.087Z,94276.44
2023-01-06T06:36:23.613Z,94318.22
2023-01-06T06:38:50.777Z,94348.94
2023-01-06T06:41:17.579Z,94375.53
2023-01-06T06:43:44.145Z,94380.94
2023-01-06T06:46:10.715Z,94443.88
2023-01-06T06:48:37.335Z,94474.63
2023-01-06T06:51:13.483Z,94491.25
2023-01-06T06:53:40.848Z,94520.00
2023-01-06T06:56:07.674Z,94551.00
2023-01-06T06:58:34.539Z,94603.84
2023-01-06T07:01:19.903Z,94644.03
2023-01-06T07:03:47.060Z,94692.69
2023-01-06T07:06:15.197Z,94732.88
2023-01-06T07:08:45.399Z,94763.88
2023-01-06T07:11:12.038Z,94798.47
2023-01-06T07:13:38.439Z,94858.75
2023-01-06T07:16:05.673Z,94864.53
2023-01-06T07:18:32.052Z,94888.03
2023-01-06T07:20:58.423Z,94869.28
2023-01-06T07:23:24.906Z,94834.84
2023-01-06T07:25:53.357Z,94801.25
2023-01-06T07:28:19.759Z,94839.72
2023-01-06T07:30:46.154Z,94860.63
2023-01-06T07:33:12.512Z,94905.69
2023-01-06T07:35:38.882Z,94954.34
2023-01-06T07:38:05.782Z,94985.03
2023-01-06T07:40:32.131Z,94996.50
2023-01-06T07:42:58.529Z,95006.31
2023-01-06T07:45:24.928Z,95038.94
2023-01-06T07:47:51.484Z,95108.16
2023-01-06T07:50:17.827Z,95157.00
2023-01-06T07:52:44.439Z,95205.50
2023-01-06T07:55:10.917Z,95239.13
2023-01-06T07:57:37.493Z,95313.28
2023-01-06T08:00:04.121Z,95382.53
2023-01-06T08:02:30.604Z,95453.44
2023-01-06T08:04:58.856Z,95479.75
2023-01-06T08:07:25.867Z,95502.47
2023-01-06T08:09:52.298Z,95552.47
2023-01-06T08:12:18.811Z,95564.88
2023-01-06T08:14:45.395Z,95610.00
2023-01-06T08:17:11.869Z,95655.09
2023-01-06T08:19:38.242Z,95691.69
2023-01-06T08:22:04.578Z,95698.88
2023-01-06T08:24:31.960Z,95757.75
2023-01-06T08:26:59.131Z,95764.91
2023-01-06T08:29:25.869Z,95798.25
2023-01-06T08:31:59.288Z,95827.66
2023-01-06T08:34:32.032Z,95838.09
2023-01-06T08:36:58.390Z,95838.41
2023-01-06T08:39:24.968Z,95902.81
2023-01-06T08:41:51.889Z,96003.22
2023-01-06T08:44:18.675Z,96097.06
2023-01-06T08:46:45.060Z,96160.34
2023-01-06T08:49:11.492Z,96194.50
2023-01-06T08:51:38.040Z,96231.09
2023-01-06T08:54:04.559Z,96236.34
2023-01-06T08:56:31.455Z,96260.56
2023-01-06T08:58:59.783Z,96245.16
2023-01-06T09:01:28.701Z,96243.50
2023-01-06T09:03:55.371Z,96247.78
2023-01-06T09:06:22.010Z,96254.66
2023-01-06T09:08:48.664Z,96269.09
2023-01-06T09:11:15.931Z,96294.25
2023-01-06T09:13:42.393Z,96270.59
2023-01-06T09:16:09.445Z,96275.69
2023-01-06T09:18:35.875Z,96282.69
2023-01-06T09:21:02.458Z,96282.56
2023-01-06T09:23:29.194Z,96291.75
2023-01-06T09:25:56.132Z,96289.97
2023-01-06T09:28:22.962Z,96316.56
2023-01-06T09:30:49.407Z,96362.09
2023-01-06T09:33:16.549Z,96348.88
2023-01-06T09:35:43.853Z,96372.81
2023-01-06T09:38:11.202Z,96363.72
2023-01-06T09:40:59.787Z,96384.09
2023-01-06T09:43:29.343Z,96414.94
2023-01-06T09:45:56.995Z,96430.63
2023-01-06T09:48:29.360Z,96419.72
2023-01-06T09:51:00.848Z,96420.97
2023-01-06T09:53:36.058Z,96443.00
2023-01-06T09:56:04.258Z,96435.81
2023-01-06T09:58:44.553Z,96449.59
2023-01-06T10:01:12.254Z,96404.38
2023-01-06T10:03:38.963Z,96362.78
2023-01-06T10:06:29.759Z,96287.16
2023-01-06T10:09:08.386Z,96285.09
2023-01-06T10:11:46.923Z,96295.56
2023-01-06T10:14:18.575Z,96259.75
2023-01-06T10:17:00.206Z,96243.22
2023-01-06T10:19:54.223Z,96152.91
2023-01-06T10:22:42.504Z,96100.84
2023-01-06T10:25:22.731Z,96028.97
2023-01-06T10:28:10.207Z,95994.59
2023-01-06T10:30:44.735Z,96016.03
2023-01-06T10:35:56.181Z,96033.78
2023-01-06T10:38:44.219Z,95976.34
2023-01-06T10:41:28.385Z,95867.06
2023-01-06T10:43:54.767Z,95783.47
2023-01-06T10:46:21.381Z,95730.13
2023-01-06T10:48:49.241Z,95679.75
2023-01-06T10:51:40.332Z,95628.75
2023-01-06T10:54:15.471Z,95566.28
2023-01-06T10:56:44.717Z,95531.63
2023-01-06T10:59:11.483Z,95505.31
2023-01-06T11:01:49.525Z,95466.06
2023-01-06T11:04:17.240Z,95460.66
2023-01-06T11:07:14.148Z,95414.22
2023-01-06T11:09:42.259Z,95401.31
2023-01-06T11:12:10.596Z,95355.06
2023-01-06T11:14:37.015Z,95334.13
2023-01-06T11:17:04.613Z,95266.91
2023-01-06T11:19:35.308Z,95226.22
2023-01-06T11:22:01.767Z,95130.28
2023-01-06T11:24:28.769Z,95010.47
2023-01-06T11:27:14.906Z,94885.00
2023-01-06T11:29:41.268Z,94736.31
2023-01-06T11:32:28.107Z,94601.09
2023-01-06T11:35:02.122Z,94456.31
2023-01-06T11:37:40.061Z,94314.31
2023-01-06T11:40:32.478Z,94241.94
2023-01-06T11:43:01.345Z,94204.13
2023-01-06T11:45:45.370Z,94164.09
2023-01-06T11:48:19.872Z,94090.72
2023-01-06T11:51:00.278Z,94044.47
2023-01-06T11:53:26.974Z,94025.38
2023-01-06T11:55:56.705Z,94012.69
2023-01-06T11:58:45.161Z,94007.94
2023-01-06T12:01:14.438Z,94040.09
2023-01-06T12:03:41.882Z,94072.28
2023-01-06T12:06:14.480Z,94092.19
2023-01-06T12:08:46.864Z,94119.94
2023-01-06T12:11:15.139Z,94119.78
2023-01-06T12:13:45.016Z,94139.69
2023-01-06T12:17:05.887Z,94234.09
2023-01-06T12:19:52.461Z,94379.84
2023-01-06T12:22:34.968Z,94541.72
2023-01-06T12:25:01.676Z,94644.88
2023-01-06T12:27:49.507Z,94742.31
2023-01-06T12:30:33.681Z,94813.75
2023-01-06T12:33:11.054Z,94844.16
2023-01-06T12:35:37.435Z,94888.47
2023-01-06T12:38:22.769Z,94928.56
2023-01-06T12:40:52.361Z,94953.72
2023-01-06T12:43:28.264Z,94944.88
2023-01-06T12:46:13.211Z,94956.97
2023-01-06T12:48:44.555Z,94963.03
2023-01-06T12:51:35.565Z,94977.91
2023-01-06T12:54:18.518Z,94987.38
2023-01-06T12:56:51.789Z,94972.13
2023-01-06T12:59:30.405Z,94975.19
2023-01-06T13:02:36.495Z,95015.28
2023-01-06T13:05:28.596Z,95058.25
2023-01-06T13:08:19.463Z,95061.53
2023-01-06T13:10:50.835Z,95082.09
2023-01-06T13:13:42.011Z,95157.97
2023-01-06T13:16:34.662Z,95223.03
2023-01-06T13:19:24.341Z,95349.72
2023-01-06T13:21:50.835Z,95431.22
2023-01-06T13:24:39.116Z,95507.72
2023-01-06T13:27:17.650Z,95631.66
2023-01-06T13:29:59.287Z,95720.75
2023-01-06T13:32:48.430Z,95781.34
2023-01-06T13:35:26.992Z,95855.38
2023-01-06T13:38:05.644Z,95871.94
2023-01-06T13:40:32.091Z,95897.97
2023-01-06T13:43:02.576Z,95923.34
2023-01-06T13:45:42.593Z,95927.09
2023-01-06T13:48:11.075Z,95955.56
2023-01-06T13:50:37.968Z,95968.69
2023-01-06T13:53:05.094Z,95993.53
2023-01-06T13:55:32.648Z,96012.53
2023-01-06T13:58:25.577Z,96057.75
2023-01-06T14:01:24.616Z,96120.00
2023-01-06T14:03:51.518Z,96146.22
2023-01-06T14:06:24.019Z,96199.59
2023-01-06T14:08:57.078Z,96250.38
2023-01-06T14:11:29.807Z,96240.19
2023-01-06T14:14:03.612Z,96199.53
2023-01-06T14:16:42.005Z,96199.84
2023-01-06T14:19:18.987Z,96242.59
2023-01-06T14:21:49.294Z,96266.63
2023-01-06T14:24:31.278Z,96337.34
2023-01-06T14:27:00.804Z,96404.50
2023-01-06T14:29:39.547Z,96469.00
2023-01-06T14:32:16.860Z,96488.59
2023-01-06T14:34:50.277Z,96599.47
2023-01-06T14:37:16.984Z,96638.91
2023-01-06T14:39:48.167Z,96673.94
2023-01-06T14:42:32.089Z,96732.56
2023-01-06T14:45:05.461Z,96765.91
2023-01-06T14:47:34.654Z,96742.59
2023-01-06T14:50:15.337Z,96749.09
2023-01-06T14:52:47.041Z,96744.78
2023-01-06T14:55:20.452Z,96713.94
2023-01-06T14:57:46.835Z,96705.66
2023-01-06T15:00:18.516Z,96685.25
2023-01-06T15:02:50.289Z,96669.56
2023-01-06T15:05:32.608Z,96647.22
2023-01-06T15:08:02.895Z,96597.34
2023-01-06T15:10:32.919Z,96556.81
2023-01-06T15:12:59.461Z,96511.09
2023-01-06T15:15:33.303Z,96471.72
2023-01-06T15:18:01.077Z,96438.69
2023-01-06T15:20:30.015Z,96403.94
2023-01-06T15:22:56.467Z,96346.00
2023-01-06T15:25:24.791Z,96306.34
2023-01-06T15:27:54.992Z,96272.09
2023-01-06T15:30:23.424Z,96241.78
2023-01-06T15:32:50.720Z,96214.25
2023-01-06T15:35:28.870Z,96198.84
2023-01-06T15:38:06.340Z,96179.19
2023-01-06T15:40:32.710Z,96175.25
2023-01-06T15:42:59.055Z,96161.75
2023-01-06T15:45:30.754Z,96171.53
2023-01-06T15:47:57.246Z,96183.25
2023-01-06T15:50:28.067Z,96177.50
2023-01-06T15:53:00.324Z,96173.66
2023-01-06T15:55:32.614Z,96155.97
2023-01-06T15:58:02.875Z,96148.41
2023-01-06T16:00:36.644Z,96126.44
2023-01-06T16:03:03.950Z,96111.31
2023-01-06T16:05:38.987Z,96089.75
2023-01-06T16:08:27.039Z,96068.44
2023-01-06T16:11:45.018Z,96025.56
2023-01-06T16:14:46.132Z,95986.38
2023-01-06T16:17:33.413Z,95957.63
2023-01-06T16:20:05.400Z,95944.88
2023-01-06T16:22:46.055Z,95925.25
2023-01-06T16:25:22.709Z,95902.69
2023-01-06T16:27:50.060Z,95887.19
2023-01-06T16:30:20.943Z,95855.28
2023-01-06T16:32:47.582Z,95838.44
2023-01-06T16:35:14.987Z,95797.78
2023-01-06T16:37:41.391Z,95759.56
2023-01-06T16:40:08.296Z,95747.75
2023-01-06T16:42:42.171Z,95760.16
2023-01-06T16:45:39.560Z,95754.28
2023-01-06T16:48:06.183Z,95773.50
2023-01-06T16:50:36.644Z,95784.28
2023-01-06T16:53:11.649Z,95798.13
2023-01-06T16:55:38.675Z,95813.00
2023-01-06T16:58:18.800Z,95834.69
2023-01-06T17:00:51.587Z,95853.13
2023-01-06T17:03:20.344Z,95874.97
2023-01-06T17:05:46.775Z,95893.41
2023-01-06T17:08:14.807Z,95898.81
2023-01-06T17:10:41.491Z,95907.06
2023-01-06T17:13:29.015Z,95921.88
2023-01-06T17:15:59.007Z,95932.66
2023-01-06T17:18:27.174Z,95950.22
2023-01-06T17:20:59.596Z,95963.59
2023-01-06T17:23:26.027Z,95968.13
2023-01-06T17:25:57.519Z,95969.75
2023-01-06T17:28:23.937Z,95985.41
2023-01-06T17:30:50.273Z,96003.03
2023-01-06T17:33:16.838Z,96010.19
2023-01-06T17:35:45.630Z,96029.13
2023-01-06T17:38:14.752Z,96056.06
2023-01-06T17:40:41.623Z,96077.09
2023-01-06T17:43:26.861Z,96089.44
2023-01-06T17:45:53.266Z,96111.28
2023-01-06T17:48:19.659Z,96116.53
2023-01-06T17:50:54.153Z,96130.53
2023-01-06T17:53:52.547Z,96130.81
2023-01-06T17:56:20.390Z,96146.78
2023-01-06T17:58:46.764Z,96143.47
2023-01-06T18:01:24.426Z,96130.97
2023-01-06T18:03:50.959Z,96133.84
2023-01-06T18:06:30.499Z,96107.75
2023-01-06T18:09:05.852Z,96082.22
2023-01-06T18:11:46.165Z,96075.38
2023-01-06T18:14:18.844Z,96065.22
2023-01-06T18:16:46.793Z,96053.41
2023-01-06T18:19:17.665Z,96032.81
2023-01-06T18:21:45.669Z,96023.47
2023-01-06T18:24:24.912Z,95992.59
2023-01-06T18:27:16.468Z,95978.03
2023-01-06T18:29:44.131Z,95973.00
2023-01-06T18:32:31.398Z,95962.88
2023-01-06T18:35:05.402Z,95953.00
2023-01-06T18:37:33.331Z,95977.16
2023-01-06T18:40:11.745Z,95976.84
2023-01-06T18:42:40.971Z,95979.19
2023-01-06T18:45:07.309Z,95940.94
2023-01-06T18:47:35.001Z,95910.53
2023-01-06T18:50:18.105Z,95864.22
2023-01-06T18:52:45.699Z,95820.50
2023-01-06T18:55:39.326Z,95817.63
2023-01-06T18:58:11.441Z,95823.38
2023-01-06T19:00:47.101Z,95776.00
2023-01-06T19:03:19.922Z,95755.44
2023-01-06T19:05:46.286Z,95689.31
2023-01-06T19:08:18.288Z,95611.13
2023-01-06T19:10:45.793Z,95547.56
2023-01-06T19:13:20.366Z,95493.91
2023-01-06T19:15:47.113Z,95439.28
2023-01-06T19:18:17.368Z,95412.88
2023-01-06T19:20:45.120Z,95403.09
2023-01-06T19:23:25.246Z,95381.72
2023-01-06T19:25:56.643Z,95361.22
2023-01-06T19:28:25.388Z,95331.66
2023-01-06T19:30:53.526Z,95316.03
2023-01-06T19:33:29.197Z,95301.84
2023-01-06T19:36:23.773Z,95314.47
2023-01-06T19:38:50.184Z,95321.91
2023-01-06T19:41:29.463Z,95326.88
2023-01-06T19:44:07.263Z,95305.91
2023-01-06T19:46:38.816Z,95298.41
2023-01-06T19:49:18.822Z,95290.22
2023-01-06T19:51:49.550Z,95303.53
2023-01-06T19:54:20.906Z,95287.53
2023-01-06T19:56:47.331Z,95327.50
2023-01-06T19:59:16.949Z,95359.28
2023-01-06T20:01:44.203Z,95397.88
2023-01-06T20:04:23.058Z,95351.34
2023-01-06T20:06:49.979Z,95285.91
2023-01-06T20:09:16.788Z,95240.75
2023-01-06T20:11:43.552Z,95203.25
2023-01-06T20:14:10.235Z,95190.44
2023-01-06T20:16:36.947Z,95220.56
2023-01-06T20:19:03.566Z,95267.09
2023-01-06T20:21:29.952Z,95295.16
2023-01-06T20:23:58.343Z,95309.56
2023-01-06T20:26:25.203Z,95321.31
2023-01-06T20:28:51.962Z,95335.28
2023-01-06T20:31:18.411Z,95330.09
2023-01-06T20:33:45.981Z,95307.81
2023-01-06T20:36:16.903Z,95314.81
2023-01-06T20:38:44.313Z,95297.44
2023-01-06T20:41:10.863Z,95269.97
2023-01-06T20:43:37.237Z,95255.06
2023-01-06T20:46:03.733Z,95194.13
2023-01-06T20:48:30.105Z,95139.56
2023-01-06T20:50:56.715Z,95095.09
2023-01-06T20:53:23.083Z,95083.06
2023-01-06T20:55:49.488Z,95061.47
2023-01-06T20:58:15.856Z,95022.56
2023-01-06T21:00:42.206Z,95016.03
2023-01-06T21:03:08.637Z,95006.47
2023-01-06T21:05:35.077Z,94918.19
2023-01-06T21:08:01.415Z,94899.94
2023-01-06T21:10:27.810Z,94879.34
2023-01-06T21:12:54.426Z,94898.63
2023-01-06T21:15:20.797Z,94871.69
2023-01-06T21:17:47.167Z,94826.22
2023-01-06T21:20:13.571Z,94826.88
2023-01-06T21:22:40.039Z,94745.03
2023-01-06T21:25:06.575Z,94743.25
2023-01-06T21:27:32.971Z,94810.47
2023-01-06T21:29:59.342Z,94877.84
2023-01-06T21:32:25.792Z,94822.03
2023-01-06T21:34:52.263Z,94685.91
2023-01-06T21:37:18.663Z,94598.47
2023-01-06T21:39:47.212Z,94573.59
2023-01-06T21:42:32.939Z,94612.13
2023-01-06T21:44:59.357Z,94691.09
2023-01-06T21:47:25.710Z,94716.78
2023-01-06T21:49:52.100Z,94734.31
2023-01-06T21:52:18.492Z,94759.69
2023-01-06T21:54:44.879Z,94740.53
2023-01-06T21:57:11.531Z,94654.38
2023-01-06T21:59:37.920Z,94497.28
2023-01-06T22:02:04.864Z,94427.03
2023-01-06T22:04:31.441Z,94363.59
2023-01-06T22:06:59.583Z,94299.09
2023-01-06T22:09:25.927Z,94239.19
2023-01-06T22:11:52.341Z,94192.41
2023-01-06T22:14:18.681Z,94167.47
2023-01-06T22:16:45.077Z,94120.16
2023-01-06T22:19:12.458Z,94093.38
2023-01-06T22:21:40.038Z,94071.22
2023-01-06T22:24:06.975Z,94055.84
2023-01-06T22:26:33.352Z,94082.22
2023-01-06T22:28:59.689Z,94122.63
2023-01-06T22:31:26.064Z,94213.16
2023-01-06T22:33:52.407Z,94349.53
2023-01-06T22:36:18.830Z,94486.19
2023-01-06T22:38:45.416Z,94558.22
2023-01-06T22:41:12.512Z,94554.81
2023-01-06T22:43:38.932Z,94529.44
2023-01-06T22:46:05.500Z,94507.00
2023-01-06T22:48:31.918Z,94435.72
2023-01-06T22:50:59.252Z,94381.09
2023-01-06T22:53:26.548Z,94307.91
2023-01-06T22:56:00.046Z,94330.09
2023-01-06T22:58:26.510Z,94309.22
2023-01-06T23:00:52.920Z,94222.91
2023-01-06T23:03:19.630Z,94195.72
2023-01-06T23:05:54.705Z,94151.78
2023-01-06T23:08:21.086Z,94125.13
2023-01-06T23:10:47.429Z,94077.75
2023-01-06T23:13:13.784Z,94054.88
2023-01-06T23:15:40.157Z,94020.88
2023-01-06T23:18:06.551Z,94040.16
2023-01-06T23:20:32.901Z,94018.78
2023-01-06T23:22:59.259Z,94056.59
2023-01-06T23:25:25.639Z,94147.59
2023-01-06T23:27:52.003Z,94096.69
2023-01-06T23:30:18.346Z,94059.81
2023-01-06T23:32:44.711Z,94011.13
2023-01-06T23:35:11.091Z,93947.13
2023-01-06T23:37:37.441Z,93918.81
2023-01-06T23:40:04.208Z,93865.06
2023-01-06T23:42:32.384Z,93821.88
2023-01-06T23:45:01.003Z,93786.28
2023-01-06T23:47:27.615Z,93777.97
2023-01-06T23:49:53.947Z,93774.16
2023-01-06T23:52:20.496Z,93770.94
2023-01-06T23:54:46.845Z,93772.09
2023-01-06T23:57:13.430Z,93752.91
2023-01-06T23:59:39.821Z,93736.69
